Time;durP1;ratioP1;P1;durP2;ratioP2;P2;SDS_P1;SDS_P2;PMS_P1;PMS_P2;Temp;Humidity;BMP_temperature;BMP_pressure;BME280_temperature;BME280_humidity;BME280_pressure;Samples;Min_cycle;Max_cycle;Signal;HPM_P1;HPM_P2
2022/05/13 00:02:20;;;;;;;3.78;3.53;;;;;;;;;;4995663;28;20082;-88
2022/05/13 00:04:47;;;;;;;3.95;3.65;;;;;;;;;;4995613;28;20457;-88
2022/05/13 00:07:15;;;;;;;8.75;3.92;;;;;;;;;;4996426;28;20409;-88
2022/05/13 00:09:57;;;;;;;5.63;3.88;;;;;;;;;;4996914;28;20116;-88
2022/05/13 00:12:25;;;;;;;4.28;3.92;;;;;;;;;;4995598;28;20133;-87
2022/05/13 00:14:53;;;;;;;3.33;3.20;;;;;;;;;;4996183;28;20054;-87
2022/05/13 00:17:22;;;;;;;5.30;3.65;;;;;;;;;;4996344;28;20043;-88
2022/05/13 00:19:49;;;;;;;5.00;4.20;;;;;;;;;;4995495;28;20130;-88
2022/05/13 00:22:16;;;;;;;7.53;3.95;;;;;;;;;;4996690;28;20112;-88
2022/05/13 00:24:50;;;;;;;6.07;3.70;;;;;;;;;;4995323;28;20058;-88
2022/05/13 00:27:17;;;;;;;3.53;3.22;;;;;;;;;;4995271;28;20056;-88
2022/05/13 00:29:44;;;;;;;4.40;4.07;;;;;;;;;;4996536;28;20054;-88
2022/05/13 00:32:11;;;;;;;4.30;3.95;;;;;;;;;;4995298;28;20463;-88
2022/05/13 00:34:38;;;;;;;3.85;3.60;;;;;;;;;;4995229;28;20050;-88
2022/05/13 00:37:05;;;;;;;3.97;3.58;;;;;;;;;;4994795;28;20096;-88
2022/05/13 00:39:32;;;;;;;4.15;3.85;;;;;;;;;;4995994;28;20133;-87
2022/05/13 00:42:22;;;;;;;3.72;3.53;;;;;;;;;;4995201;28;20140;-88
2022/05/13 00:44:49;;;;;;;4.85;4.43;;;;;;;;;;4995159;28;20054;-88
2022/05/13 00:47:18;;;;;;;4.05;3.50;;;;;;;;;;4995317;28;20100;-87
2022/05/13 00:49:46;;;;;;;4.38;3.45;;;;;;;;;;4995381;28;20148;-88
2022/05/13 00:52:14;;;;;;;6.90;3.85;;;;;;;;;;4994980;28;20189;-88
2022/05/13 00:54:42;;;;;;;5.07;4.10;;;;;;;;;;4994927;28;20086;-88
2022/05/13 00:57:12;;;;;;;7.07;4.22;;;;;;;;;;4995822;28;20141;-88
2022/05/13 00:59:42;;;;;;;4.85;4.35;;;;;;;;;;4994855;28;20086;-88
2022/05/13 01:02:09;;;;;;;6.05;4.13;;;;;;;;;;4996241;28;20053;-88
2022/05/13 01:04:38;;;;;;;4.63;4.22;;;;;;;;;;4994783;28;20050;-88
2022/05/13 01:07:06;;;;;;;4.20;3.90;;;;;;;;;;4994967;28;20129;-88
2022/05/13 01:09:34;;;;;;;8.43;3.75;;;;;;;;;;4995878;28;20050;-87
2022/05/13 01:12:04;;;;;;;4.03;3.72;;;;;;;;;;4994584;28;20491;-88
2022/05/13 01:14:36;;;;;;;3.75;3.47;;;;;;;;;;4995052;28;20117;-88
2022/05/13 01:20:05;;;;;;;5.20;3.92;;;;;;;;;;4995661;28;20060;-87
2022/05/13 01:22:38;;;;;;;5.97;4.13;;;;;;;;;;4994721;28;20089;-88
2022/05/13 01:25:05;;;;;;;;;;;;;;;;;;4995274;28;20478;-88
2022/05/13 01:27:33;;;;;;;7.93;4.50;;;;;;;;;;4994389;28;20020;-88
2022/05/13 01:30:00;;;;;;;5.90;4.18;;;;;;;;;;4994487;28;20452;-88
2022/05/13 01:32:27;;;;;;;6.38;4.05;;;;;;;;;;4995488;28;20097;-88
2022/05/13 01:34:54;;;;;;;6.45;4.28;;;;;;;;;;4993780;28;20077;-88
2022/05/13 01:37:21;;;;;;;7.63;4.30;;;;;;;;;;4993391;28;20554;-88
2022/05/13 01:39:48;;;;;;;5.15;4.18;;;;;;;;;;4997048;28;20061;-88
2022/05/13 01:42:16;;;;;;;6.43;4.20;;;;;;;;;;4996433;28;20082;-88
2022/05/13 01:44:43;;;;;;;4.65;4.25;;;;;;;;;;4994041;28;20065;-88
2022/05/13 01:47:10;;;;;;;4.95;4.03;;;;;;;;;;4993985;28;20173;-88
2022/05/13 01:49:37;;;;;;;6.00;4.35;;;;;;;;;;4994088;28;20129;-88
2022/05/13 01:52:04;;;;;;;5.80;4.80;;;;;;;;;;4993875;28;20106;-87
2022/05/13 01:54:32;;;;;;;9.23;5.15;;;;;;;;;;4994755;28;20414;-88
2022/05/13 01:56:59;;;;;;;7.25;4.95;;;;;;;;;;4994934;28;20145;-88
2022/05/13 01:59:26;;;;;;;5.03;4.63;;;;;;;;;;4993692;28;20137;-88
2022/05/13 02:01:53;;;;;;;7.22;4.75;;;;;;;;;;4993551;28;20450;-88
2022/05/13 02:04:21;;;;;;;6.32;4.90;;;;;;;;;;4993528;28;20057;-86
2022/05/13 02:06:48;;;;;;;4.72;4.40;;;;;;;;;;4993552;28;20490;-88
2022/05/13 02:09:15;;;;;;;5.03;4.63;;;;;;;;;;4993227;28;20133;-88
2022/05/13 02:11:45;;;;;;;9.75;5.00;;;;;;;;;;4993263;28;20133;-88
2022/05/13 02:14:13;;;;;;;5.03;4.50;;;;;;;;;;4993076;28;20104;-88
2022/05/13 02:16:41;;;;;;;5.03;4.40;;;;;;;;;;4993158;28;20145;-88
2022/05/13 02:19:08;;;;;;;5.13;4.50;;;;;;;;;;4992746;28;20047;-88
2022/05/13 02:21:36;;;;;;;7.13;4.78;;;;;;;;;;4993239;28;20177;-88
2022/05/13 02:24:05;;;;;;;8.00;4.90;;;;;;;;;;4993775;28;20072;-88
2022/05/13 02:26:32;;;;;;;5.78;5.18;;;;;;;;;;4994073;28;20132;-86
2022/05/13 02:29:01;;;;;;;6.30;5.15;;;;;;;;;;4994165;28;20077;-88
2022/05/13 02:31:31;;;;;;;7.05;5.32;;;;;;;;;;4992989;28;20053;-87
2022/05/13 02:33:59;;;;;;;6.60;5.80;;;;;;;;;;4992835;28;20167;-88
2022/05/13 02:36:26;;;;;;;5.50;5.00;;;;;;;;;;4993457;28;20125;-89
2022/05/13 02:38:54;;;;;;;6.55;5.88;;;;;;;;;;4994091;28;20093;-88
2022/05/13 02:41:21;;;;;;;8.52;6.47;;;;;;;;;;4992887;28;20468;-88
2022/05/13 02:43:50;;;;;;;7.13;6.10;;;;;;;;;;4992949;28;20054;-88
2022/05/13 02:46:19;;;;;;;9.25;6.30;;;;;;;;;;4992952;28;20050;-88
2022/05/13 02:48:47;;;;;;;12.15;5.82;;;;;;;;;;4992979;28;20145;-87
2022/05/13 02:51:14;;;;;;;6.47;5.75;;;;;;;;;;4993852;28;20133;-88
2022/05/13 02:53:42;;;;;;;9.32;5.72;;;;;;;;;;4992830;28;20137;-88
2022/05/13 02:56:09;;;;;;;7.03;5.72;;;;;;;;;;4992122;28;20133;-88
2022/05/13 02:58:38;;;;;;;6.60;5.15;;;;;;;;;;4993758;28;20054;-87
2022/05/13 03:01:06;;;;;;;8.82;5.40;;;;;;;;;;4992700;28;20054;-88
2022/05/13 03:03:34;;;;;;;7.28;4.97;;;;;;;;;;4993084;28;20085;-88
2022/05/13 03:06:01;;;;;;;7.88;5.47;;;;;;;;;;4992498;28;20525;-88
2022/05/13 03:08:28;;;;;;;8.20;5.38;;;;;;;;;;4992916;28;20085;-88
2022/05/13 03:10:56;;;;;;;8.48;5.05;;;;;;;;;;4992248;28;20050;-88
2022/05/13 03:13:23;;;;;;;6.43;5.85;;;;;;;;;;4992937;28;20050;-88
2022/05/13 03:15:50;;;;;;;8.48;5.75;;;;;;;;;;4992329;28;20155;-88
2022/05/13 03:18:17;;;;;;;8.68;6.25;;;;;;;;;;4993618;28;20093;-87
2022/05/13 03:20:44;;;;;;;11.10;6.05;;;;;;;;;;4992527;28;20078;-88
2022/05/13 03:23:12;;;;;;;11.65;5.45;;;;;;;;;;4992426;28;20133;-88
2022/05/13 03:25:39;;;;;;;6.45;5.18;;;;;;;;;;4993853;28;20173;-88
2022/05/13 03:28:06;;;;;;;9.60;5.50;;;;;;;;;;4993776;28;20061;-87
2022/05/13 03:30:33;;;;;;;5.88;5.07;;;;;;;;;;4994814;28;20569;-88
2022/05/13 03:33:00;;;;;;;7.43;6.00;;;;;;;;;;4996468;28;20046;-88
2022/05/13 03:35:28;;;;;;;6.43;5.55;;;;;;;;;;4997426;28;20045;-88
2022/05/13 03:37:55;;;;;;;7.22;6.10;;;;;;;;;;4996050;28;20490;-88
2022/05/13 03:40:22;;;;;;;5.88;5.43;;;;;;;;;;4996501;28;20050;-88
2022/05/13 03:42:50;;;;;;;7.45;6.13;;;;;;;;;;4996329;28;20050;-87
2022/05/13 03:45:18;;;;;;;8.48;6.20;;;;;;;;;;4996191;28;20561;-88
2022/05/13 03:47:48;;;;;;;6.93;6.20;;;;;;;;;;4996150;28;20053;-87
2022/05/13 03:50:15;;;;;;;6.50;5.95;;;;;;;;;;4997084;28;20110;-88
2022/05/13 03:52:42;;;;;;;6.78;6.10;;;;;;;;;;4997287;28;20054;-87
2022/05/13 03:55:10;;;;;;;7.15;6.50;;;;;;;;;;4997040;28;20097;-88
2022/05/13 03:57:37;;;;;;;7.65;6.50;;;;;;;;;;4997246;28;20054;-88
2022/05/13 04:00:05;;;;;;;8.18;7.13;;;;;;;;;;4996388;28;20061;-88
2022/05/13 04:02:32;;;;;;;7.57;6.25;;;;;;;;;;4997016;28;20409;-88
2022/05/13 04:10:31;;;;;;;8.02;7.22;;;;;;;;;;4997222;28;20054;-88
2022/05/13 04:18:31;;;;;;;9.68;7.10;;;;;;;;;;4996559;28;20061;-88
2022/05/13 04:20:58;;;;;;;8.35;7.53;;;;;;;;;;4996171;28;20081;-88
2022/05/13 04:23:26;;;;;;;10.82;7.35;;;;;;;;;;5002332;28;20082;-87
2022/05/13 04:25:54;;;;;;;10.85;6.95;;;;;;;;;;4996024;28;20100;-87
2022/05/13 04:28:21;;;;;;;7.38;6.60;;;;;;;;;;4995733;28;20467;-87
2022/05/13 04:30:48;;;;;;;9.70;7.13;;;;;;;;;;4995978;28;20133;-87
2022/05/13 04:33:15;;;;;;;8.75;7.72;;;;;;;;;;4995436;28;20054;-87
2022/05/13 04:35:42;;;;;;;8.48;7.68;;;;;;;;;;4996101;28;20487;-88
2022/05/13 04:38:09;;;;;;;9.77;7.63;;;;;;;;;;4995228;28;20129;-87
2022/05/13 04:40:37;;;;;;;9.10;8.07;;;;;;;;;;4994936;28;20137;-88
2022/05/13 04:43:06;;;;;;;11.32;8.57;;;;;;;;;;4995314;28;20129;-88
2022/05/13 04:45:33;;;;;;;8.95;7.88;;;;;;;;;;4994915;28;20050;-88
2022/05/13 04:48:18;;;;;;;9.68;7.25;;;;;;;;;;4994675;28;20053;-88
2022/05/13 04:50:49;;;;;;;7.45;6.75;;;;;;;;;;4995184;28;20078;-88
2022/05/13 04:53:18;;;;;;;10.18;7.05;;;;;;;;;;4994789;28;20230;-88
2022/05/13 04:55:45;;;;;;;7.80;6.50;;;;;;;;;;4995101;28;20082;-88
2022/05/13 04:58:12;;;;;;;6.47;5.90;;;;;;;;;;4994892;28;20050;-87
2022/05/13 05:00:42;;;;;;;6.32;5.45;;;;;;;;;;4995767;28;20101;-88
2022/05/13 05:03:10;;;;;;;6.00;5.45;;;;;;;;;;4994738;28;20097;-87
2022/05/13 05:05:37;;;;;;;6.45;4.40;;;;;;;;;;4994873;28;20093;-88
2022/05/13 05:08:05;;;;;;;8.18;4.82;;;;;;;;;;4994669;28;20050;-88
2022/05/13 05:10:32;;;;;;;5.05;4.53;;;;;;;;;;4994601;28;20414;-88
2022/05/13 05:12:59;;;;;;;5.65;4.22;;;;;;;;;;5003439;28;20081;-88
2022/05/13 05:15:27;;;;;;;3.90;3.05;;;;;;;;;;5013292;28;20235;-88
2022/05/13 05:17:55;;;;;;;3.20;3.00;;;;;;;;;;5014152;28;20125;-88
2022/05/13 05:20:22;;;;;;;6.88;3.00;;;;;;;;;;5012243;28;20082;-88
2022/05/13 05:22:50;;;;;;;3.30;2.63;;;;;;;;;;5005789;28;20130;-88
2022/05/13 05:25:18;;;;;;;2.53;2.28;;;;;;;;;;5002628;28;20108;-89
2022/05/13 05:27:46;;;;;;;1.95;1.85;;;;;;;;;;5004816;28;20129;-89
2022/05/13 05:30:14;;;;;;;2.83;2.08;;;;;;;;;;5004609;28;20062;-89
2022/05/13 05:32:42;;;;;;;3.33;2.25;;;;;;;;;;4999694;28;20061;-89
2022/05/13 05:35:12;;;;;;;7.68;3.00;;;;;;;;;;4994463;28;20132;-90
2022/05/13 05:37:39;;;;;;;3.47;2.30;;;;;;;;;;4994243;28;20050;-89
2022/05/13 05:40:06;;;;;;;6.25;2.50;;;;;;;;;;4993075;28;20089;-89
2022/05/13 05:42:34;;;;;;;5.45;2.20;;;;;;;;;;4993774;28;20051;-88
2022/05/13 05:45:01;;;;;;;6.80;2.78;;;;;;;;;;4993557;28;20054;-89
2022/05/13 05:47:29;;;;;;;9.43;2.70;;;;;;;;;;4994128;28;20078;-88
2022/05/13 05:49:57;;;;;;;6.40;2.80;;;;;;;;;;4994091;28;20545;-90
2022/05/13 05:52:25;;;;;;;7.88;3.40;;;;;;;;;;4993829;28;20089;-89
2022/05/13 05:57:38;;;;;;;21.70;3.97;;;;;;;;;;4994867;28;20097;-90
2022/05/13 06:00:06;;;;;;;8.00;2.63;;;;;;;;;;4993789;28;20133;-89
2022/05/13 06:02:34;;;;;;;6.28;2.55;;;;;;;;;;4994027;28;20391;-90
2022/05/13 06:05:01;;;;;;;4.40;2.40;;;;;;;;;;4993703;28;20058;-88
2022/05/13 06:07:28;;;;;;;13.90;3.50;;;;;;;;;;5003178;28;20088;-87
2022/05/13 06:09:55;;;;;;;11.68;3.03;;;;;;;;;;4993974;28;20483;-90
2022/05/13 06:12:22;;;;;;;7.38;2.78;;;;;;;;;;4993800;28;20130;-89
2022/05/13 06:14:50;;;;;;;13.52;3.58;;;;;;;;;;5003463;28;20054;-89
2022/05/13 06:17:17;;;;;;;31.40;5.45;;;;;;;;;;4997518;28;20050;-90
2022/05/13 06:19:44;;;;;;;21.50;3.92;;;;;;;;;;4993266;28;20053;-89
2022/05/13 06:22:11;;;;;;;16.20;3.95;;;;;;;;;;4994407;28;20422;-89
2022/05/13 06:24:39;;;;;;;12.40;3.80;;;;;;;;;;4993666;28;20054;-89
2022/05/13 06:27:07;;;;;;;14.10;3.05;;;;;;;;;;4993499;28;20133;-91
2022/05/13 06:29:36;;;;;;;11.57;2.90;;;;;;;;;;4994378;28;20104;-90
2022/05/13 06:32:04;;;;;;;10.07;2.67;;;;;;;;;;4993444;28;20046;-89
2022/05/13 06:34:32;;;;;;;10.05;2.88;;;;;;;;;;4993076;28;20051;-90
2022/05/13 06:36:59;;;;;;;8.55;2.50;;;;;;;;;;4995847;28;20139;-90
2022/05/13 06:39:26;;;;;;;11.88;2.88;;;;;;;;;;5012713;28;20046;-89
2022/05/13 06:41:54;;;;;;;6.88;2.80;;;;;;;;;;5012638;28;20088;-90
2022/05/13 06:44:21;;;;;;;6.93;3.13;;;;;;;;;;5013583;28;20157;-90
2022/05/13 06:46:48;;;;;;;15.73;2.97;;;;;;;;;;5012814;28;20132;-90
2022/05/13 06:49:15;;;;;;;20.17;3.97;;;;;;;;;;5013977;28;20132;-90
2022/05/13 06:51:42;;;;;;;16.30;3.58;;;;;;;;;;5013040;28;20162;-89
2022/05/13 06:54:11;;;;;;;20.45;3.80;;;;;;;;;;5012880;28;20145;-90
2022/05/13 06:56:39;;;;;;;14.40;3.28;;;;;;;;;;5012823;28;20060;-89
2022/05/13 06:59:07;;;;;;;14.10;3.47;;;;;;;;;;5012718;28;20140;-88
2022/05/13 07:01:39;;;;;;;12.45;2.80;;;;;;;;;;5013779;28;20092;-91
2022/05/13 07:04:06;;;;;;;9.15;1.42;;;;;;;;;;5014401;28;20057;-90
2022/05/13 07:06:34;;;;;;;5.10;1.35;;;;;;;;;;5017307;28;20125;-89
2022/05/13 07:09:01;;;;;;;2.63;1.13;;;;;;;;;;5017499;28;20109;-90
2022/05/13 07:11:28;;;;;;;2.60;1.20;;;;;;;;;;5017083;28;20046;-88
2022/05/13 07:13:55;;;;;;;3.17;1.05;;;;;;;;;;5017198;28;20125;-88
2022/05/13 07:16:23;;;;;;;6.38;1.30;;;;;;;;;;5017355;28;20064;-92
2022/05/13 07:18:50;;;;;;;4.90;1.10;;;;;;;;;;5016813;28;20066;-92
2022/05/13 07:21:18;;;;;;;10.25;1.52;;;;;;;;;;5019459;28;20056;-94
2022/05/13 07:23:45;;;;;;;11.38;1.25;;;;;;;;;;5018548;28;20042;-92
2022/05/13 07:26:12;;;;;;;3.03;1.10;;;;;;;;;;5016869;28;20156;-91
2022/05/13 07:28:39;;;;;;;3.60;0.90;;;;;;;;;;5017025;28;20554;-91
2022/05/13 07:31:08;;;;;;;5.72;1.25;;;;;;;;;;5018019;28;20057;-94
2022/05/13 07:33:36;;;;;;;2.85;0.93;;;;;;;;;;5018100;28;20120;-95
2022/05/13 07:36:05;;;;;;;3.28;0.85;;;;;;;;;;5018444;28;20050;-91
2022/05/13 07:38:34;;;;;;;3.42;0.93;;;;;;;;;;5017661;28;20541;-89
2022/05/13 07:41:17;;;;;;;6.70;1.05;;;;;;;;;;5018034;28;20140;-91
2022/05/13 07:43:47;;;;;;;3.25;0.88;;;;;;;;;;5018406;28;20445;-90
2022/05/13 07:46:17;;;;;;;5.28;1.00;;;;;;;;;;5016111;28;20057;-90
2022/05/13 07:48:46;;;;;;;3.50;1.20;;;;;;;;;;5017191;28;20045;-95
2022/05/13 07:51:15;;;;;;;3.58;1.02;;;;;;;;;;5020174;28;20108;-92
2022/05/13 07:53:42;;;;;;;10.05;1.38;;;;;;;;;;5018640;28;20050;-93
2022/05/13 07:56:13;;;;;;;9.80;1.27;;;;;;;;;;5019897;28;20163;-89
2022/05/13 07:58:41;;;;;;;2.00;0.80;;;;;;;;;;5018305;28;20065;-94
2022/05/13 08:01:08;;;;;;;2.90;1.00;;;;;;;;;;5016911;28;20057;-86
2022/05/13 08:03:36;;;;;;;4.35;1.00;;;;;;;;;;5017105;28;20057;-90
2022/05/13 08:06:04;;;;;;;4.82;0.85;;;;;;;;;;5016390;28;20140;-87
2022/05/13 08:08:35;;;;;;;2.38;0.60;;;;;;;;;;5018674;28;20050;-92
2022/05/13 08:11:04;;;;;;;6.32;0.80;;;;;;;;;;5012092;28;20163;-95
2022/05/13 08:13:33;;;;;;;2.05;0.82;;;;;;;;;;5006495;28;20046;-93
2022/05/13 08:16:01;;;;;;;8.70;1.48;;;;;;;;;;5011651;28;20092;-91
2022/05/13 08:18:29;;;;;;;3.70;0.82;;;;;;;;;;5017188;28;20050;-93
2022/05/13 08:20:58;;;;;;;6.50;1.40;;;;;;;;;;5018155;28;20128;-91
2022/05/13 08:23:34;;;;;;;4.10;0.77;;;;;;;;;;5017553;28;20140;-90
2022/05/13 08:26:04;;;;;;;2.80;0.95;;;;;;;;;;5020338;28;20050;-94
2022/05/13 08:28:32;;;;;;;3.13;0.50;;;;;;;;;;5019404;28;20100;-93
2022/05/13 08:30:59;;;;;;;4.80;0.90;;;;;;;;;;5018224;28;20391;-93
2022/05/13 08:33:28;;;;;;;4.60;1.40;;;;;;;;;;5023118;28;20060;-90
2022/05/13 08:36:00;;;;;;;3.63;0.88;;;;;;;;;;5027410;28;20054;-91
2022/05/13 08:38:29;;;;;;;20.15;1.88;;;;;;;;;;5018523;28;20445;-90
2022/05/13 08:41:08;;;;;;;12.93;2.25;;;;;;;;;;5018629;28;20046;-90
2022/05/13 08:43:39;;;;;;;4.55;0.85;;;;;;;;;;5018590;28;20115;-91
2022/05/13 08:46:06;;;;;;;5.22;1.08;;;;;;;;;;5021124;28;20061;-92
2022/05/13 08:48:52;;;;;;;6.25;1.15;;;;;;;;;;5022841;28;20446;-93
2022/05/13 08:51:39;;;;;;;6.00;1.13;;;;;;;;;;5020452;28;20053;-94
2022/05/13 08:54:17;;;;;;;9.45;1.42;;;;;;;;;;5016681;28;20046;-93
2022/05/13 08:56:45;;;;;;;2.42;0.80;;;;;;;;;;5019707;28;20051;-92
2022/05/13 08:59:17;;;;;;;4.60;0.93;;;;;;;;;;5018109;28;20138;-94
2022/05/13 09:01:49;;;;;;;8.93;1.65;;;;;;;;;;5017727;28;20054;-93
2022/05/13 09:04:30;;;;;;;6.53;1.13;;;;;;;;;;5019873;28;20060;-93
2022/05/13 09:07:12;;;;;;;6.30;0.93;;;;;;;;;;5020347;28;20096;-89
2022/05/13 09:09:41;;;;;;;3.40;1.23;;;;;;;;;;5016783;28;20132;-91
2022/05/13 09:12:09;;;;;;;7.43;1.67;;;;;;;;;;5019057;28;20053;-92
2022/05/13 09:14:57;;;;;;;4.68;1.40;;;;;;;;;;5017959;28;20072;-90
2022/05/13 09:17:32;;;;;;;2.80;0.70;;;;;;;;;;5017987;28;20081;-92
2022/05/13 09:20:13;;;;;;;4.82;1.10;;;;;;;;;;5018962;28;20065;-95
2022/05/13 09:22:58;;;;;;;3.63;1.10;;;;;;;;;;5015817;28;20561;-88
2022/05/13 09:25:28;;;;;;;10.48;1.10;;;;;;;;;;5015179;28;20053;-91
2022/05/13 09:27:59;;;;;;;11.27;0.80;;;;;;;;;;5013790;28;20053;-93
2022/05/13 09:30:37;;;;;;;4.45;0.82;;;;;;;;;;5017705;28;20430;-94
2022/05/13 09:33:18;;;;;;;4.55;1.13;;;;;;;;;;5017065;28;20054;-94
2022/05/13 09:35:47;;;;;;;6.78;0.90;;;;;;;;;;5015129;28;20060;-94
2022/05/13 09:38:23;;;;;;;9.45;1.23;;;;;;;;;;5017426;28;20050;-92
2022/05/13 09:41:05;;;;;;;4.72;0.93;;;;;;;;;;5010648;28;20061;-94
2022/05/13 09:43:36;;;;;;;7.30;1.05;;;;;;;;;;5007970;28;20062;-91
2022/05/13 09:46:07;;;;;;;15.13;1.65;;;;;;;;;;5014564;28;20169;-93
2022/05/13 09:48:39;;;;;;;2.50;0.85;;;;;;;;;;5000076;28;20038;-94
2022/05/13 09:51:25;;;;;;;0.55;0.55;;;;;;;;;;5016181;28;21180;-93
2022/05/13 09:54:02;;;;;;;1.42;0.60;;;;;;;;;;5016527;28;20034;-90
2022/05/13 09:56:37;;;;;;;2.67;0.70;;;;;;;;;;5015053;28;20050;-93
2022/05/13 09:59:12;;;;;;;5.15;0.90;;;;;;;;;;5014007;28;20050;-94
2022/05/13 10:01:42;;;;;;;1.63;0.80;;;;;;;;;;5018680;28;20046;-96
2022/05/13 10:04:12;;;;;;;32.10;1.70;;;;;;;;;;5014521;28;20472;-93
2022/05/13 10:06:49;;;;;;;5.95;0.75;;;;;;;;;;5017770;28;20053;-95
2022/05/13 10:15:25;;;;;;;2.80;0.65;;;;;;;;;;5014523;28;20054;-93
2022/05/13 10:17:59;;;;;;;2.60;1.00;;;;;;;;;;5017254;28;20136;-94
2022/05/13 10:20:31;;;;;;;4.30;0.77;;;;;;;;;;5014908;28;20491;-94
2022/05/13 10:23:10;;;;;;;11.45;0.90;;;;;;;;;;5015933;28;20129;-92
2022/05/13 10:26:00;;;;;;;2.70;0.63;;;;;;;;;;5016883;28;20486;-95
2022/05/13 10:28:37;;;;;;;7.40;1.63;;;;;;;;;;5013829;28;20490;-89
2022/05/13 10:31:12;;;;;;;4.78;0.90;;;;;;;;;;5014929;28;20057;-94
2022/05/13 10:33:54;;;;;;;2.15;0.63;;;;;;;;;;5016607;28;20133;-94
2022/05/13 10:36:25;;;;;;;9.57;0.90;;;;;;;;;;5016124;28;20057;-96
2022/05/13 10:38:59;;;;;;;7.88;0.95;;;;;;;;;;5016036;28;20049;-92
2022/05/13 10:41:52;;;;;;;4.70;0.88;;;;;;;;;;5015612;28;20473;-95
2022/05/13 10:44:23;;;;;;;21.27;1.80;;;;;;;;;;5014964;28;20088;-89
2022/05/13 10:46:50;;;;;;;10.77;1.02;;;;;;;;;;5015243;28;20053;-89
2022/05/13 10:49:34;;;;;;;12.07;1.10;;;;;;;;;;5014846;28;20054;-92
2022/05/13 10:52:24;;;;;;;10.65;1.08;;;;;;;;;;5014927;28;20478;-92
2022/05/13 10:55:13;;;;;;;2.97;0.85;;;;;;;;;;5012677;28;20077;-93
2022/05/13 10:57:42;;;;;;;3.65;0.90;;;;;;;;;;5009065;28;20054;-88
2022/05/13 11:00:18;;;;;;;4.60;0.98;;;;;;;;;;4997961;28;20058;-90
2022/05/13 11:03:14;;;;;;;9.95;1.33;;;;;;;;;;4994984;28;20402;-93
2022/05/13 11:06:01;;;;;;;3.33;0.80;;;;;;;;;;5000228;28;20049;-92
2022/05/13 11:08:31;;;;;;;1.67;0.70;;;;;;;;;;4997661;28;20046;-85
2022/05/13 11:10:58;;;;;;;2.05;0.93;;;;;;;;;;5000276;28;20117;-90
2022/05/13 11:13:38;;;;;;;4.35;0.65;;;;;;;;;;4997894;28;20113;-91
2022/05/13 11:16:17;;;;;;;2.85;0.80;;;;;;;;;;4997801;28;20193;-95
2022/05/13 11:18:54;;;;;;;2.88;0.73;;;;;;;;;;4998421;28;20074;-93
2022/05/13 11:21:45;;;;;;;3.95;1.02;;;;;;;;;;4997954;28;20499;-94
2022/05/13 11:27:24;;;;;;;4.78;0.93;;;;;;;;;;5002776;28;20062;-92
2022/05/13 11:30:02;;;;;;;2.72;0.75;;;;;;;;;;4995073;28;20116;-93
2022/05/13 11:32:41;;;;;;;4.93;0.85;;;;;;;;;;4999874;28;20054;-95
2022/05/13 11:35:27;;;;;;;3.78;1.08;;;;;;;;;;5000606;28;20069;-95
2022/05/13 11:37:59;;;;;;;1.30;0.60;;;;;;;;;;4999625;28;20077;-92
2022/05/13 11:40:50;;;;;;;6.35;0.80;;;;;;;;;;4996421;28;20055;-94
2022/05/13 11:43:58;;;;;;;3.25;0.60;;;;;;;;;;4998757;28;20050;-93
2022/05/13 11:46:29;;;;;;;5.82;1.00;;;;;;;;;;4996868;28;20066;-91
2022/05/13 11:49:08;;;;;;;6.10;0.98;;;;;;;;;;4999902;28;20482;-91
2022/05/13 11:51:38;;;;;;;3.90;0.90;;;;;;;;;;5000872;28;20200;-88
2022/05/13 11:54:19;;;;;;;8.13;0.85;;;;;;;;;;5007085;23;20064;-87
2022/05/13 11:56:47;;;;;;;1.83;0.40;;;;;;;;;;5001717;28;20085;-84
2022/05/13 11:59:31;;;;;;;6.93;0.85;;;;;;;;;;4986409;28;20042;-82
2022/05/13 12:01:58;;;;;;;;;;;;;;;;;;4985637;28;20043;-84
2022/05/13 12:04:32;;;;;;;3.35;0.65;;;;;;;;;;5005510;28;19921;-82
2022/05/13 12:07:23;;;;;;;3.42;0.98;;;;;;;;;;4987031;28;20054;-83
2022/05/13 12:09:56;;;;;;;3.67;0.80;;;;;;;;;;5004007;28;20043;-84
2022/05/13 12:12:45;;;;;;;2.35;0.63;;;;;;;;;;4985386;28;20132;-82
2022/05/13 12:15:38;;;;;;;6.32;0.70;;;;;;;;;;4984762;28;20507;-82
2022/05/13 12:18:14;;;;;;;2.88;0.50;;;;;;;;;;4983570;28;20050;-85
2022/05/13 12:20:45;;;;;;;6.70;0.77;;;;;;;;;;4984734;28;20381;-80
2022/05/13 12:23:18;;;;;;;5.07;1.30;;;;;;;;;;4983167;28;20057;-86
2022/05/13 12:25:45;;;;;;;;;;;;;;;;;;4984262;28;20101;-85
2022/05/13 12:28:16;;;;;;;7.28;0.80;;;;;;;;;;4999748;28;19968;-85
2022/05/13 12:30:44;;;;;;;3.28;0.70;;;;;;;;;;4983241;28;20070;-85
2022/05/13 12:33:23;;;;;;;11.35;1.48;;;;;;;;;;4984787;28;20057;-84
2022/05/13 12:39:00;;;;;;;6.40;0.75;;;;;;;;;;5002287;28;20050;-86
2022/05/13 12:41:38;;;;;;;4.25;0.80;;;;;;;;;;4984768;28;20385;-86
2022/05/13 12:44:14;;;;;;;2.55;0.70;;;;;;;;;;4984388;28;20484;-87
2022/05/13 12:46:48;;;;;;;3.47;0.88;;;;;;;;;;4985339;28;20053;-86
2022/05/13 12:49:20;;;;;;;2.88;0.70;;;;;;;;;;4984414;28;20050;-85
2022/05/13 12:52:01;;;;;;;1.50;0.70;;;;;;;;;;4984559;28;20074;-84
2022/05/13 12:54:29;;;;;;;4.93;0.68;;;;;;;;;;4984693;28;20065;-83
2022/05/13 12:57:08;;;;;;;4.57;0.93;;;;;;;;;;4987045;28;20100;-86
2022/05/13 12:59:56;;;;;;;3.22;0.80;;;;;;;;;;4996826;28;20054;-85
2022/05/13 13:02:24;;;;;;;13.63;1.65;;;;;;;;;;4980608;28;20381;-86
2022/05/13 13:04:56;;;;;;;6.47;1.20;;;;;;;;;;4979928;28;20059;-84
2022/05/13 13:07:25;;;;;;;2.90;0.90;;;;;;;;;;4980904;28;20053;-84
2022/05/13 13:09:52;;;;;;;5.47;1.00;;;;;;;;;;4980592;28;20050;-80
2022/05/13 13:12:23;;;;;;;2.25;0.80;;;;;;;;;;4980532;28;20050;-85
2022/05/13 13:15:15;;;;;;;4.30;0.77;;;;;;;;;;4983616;28;20560;-84
2022/05/13 13:17:59;;;;;;;2.05;0.90;;;;;;;;;;4982519;28;20544;-82
2022/05/13 13:20:30;;;;;;;8.73;0.90;;;;;;;;;;5000000;28;20085;-83
2022/05/13 13:23:02;;;;;;;12.82;1.10;;;;;;;;;;4981194;28;20134;-84
2022/05/13 13:25:34;;;;;;;5.43;0.80;;;;;;;;;;4997292;28;20134;-82
2022/05/13 13:28:06;;;;;;;3.28;0.85;;;;;;;;;;4981532;28;20054;-84
2022/05/13 13:30:33;;;;;;;2.88;0.80;;;;;;;;;;4981623;28;20093;-84
2022/05/13 13:33:06;;;;;;;7.65;1.00;;;;;;;;;;4998634;28;20409;-80
2022/05/13 13:35:35;;;;;;;5.45;1.10;;;;;;;;;;4982433;28;20046;-84
2022/05/13 13:38:03;;;;;;;7.68;1.75;;;;;;;;;;4982948;28;20054;-83
2022/05/13 13:40:35;;;;;;;6.60;1.20;;;;;;;;;;4981160;28;20050;-84
2022/05/13 13:43:37;;;;;;;3.47;0.80;;;;;;;;;;4982064;28;20046;-83
2022/05/13 13:46:08;;;;;;;1.83;0.80;;;;;;;;;;4938153;29;20056;-82
2022/05/13 13:48:42;;;;;;;4.65;1.23;;;;;;;;;;4937037;29;20605;-82
2022/05/13 13:51:16;;;;;;;5.35;1.30;;;;;;;;;;4937893;29;20075;-84
2022/05/13 13:53:43;;;;;;;;;;;;;;;;;;4938104;29;20596;-85
2022/05/13 13:56:15;;;;;;;3.17;1.00;;;;;;;;;;4939427;29;19923;-78
2022/05/13 13:58:45;;;;;;;6.45;1.55;;;;;;;;;;4937268;29;20051;-85
2022/05/13 14:01:14;;;;;;;5.25;1.10;;;;;;;;;;4977498;28;20511;-86
2022/05/13 14:03:42;;;;;;;4.45;1.00;;;;;;;;;;4978553;28;20046;-84
2022/05/13 14:06:15;;;;;;;10.32;1.48;;;;;;;;;;4979195;28;20081;-85
2022/05/13 14:08:42;;;;;;;;;;;;;;;;;;4980947;28;20078;-85
2022/05/13 14:11:12;;;;;;;7.72;1.33;;;;;;;;;;4981115;28;19926;-87
2022/05/13 14:14:02;;;;;;;10.07;1.23;;;;;;;;;;4980477;28;20161;-85
2022/05/13 14:16:35;;;;;;;6.13;0.98;;;;;;;;;;4978206;28;20507;-86
2022/05/13 14:19:12;;;;;;;14.05;1.40;;;;;;;;;;4980290;28;20053;-85
2022/05/13 14:21:52;;;;;;;4.93;1.10;;;;;;;;;;4980546;28;20049;-85
2022/05/13 14:24:29;;;;;;;8.13;0.90;;;;;;;;;;5000385;28;20042;-84
2022/05/13 14:27:00;;;;;;;3.63;0.85;;;;;;;;;;4981113;28;20500;-84
2022/05/13 14:29:34;;;;;;;5.90;0.95;;;;;;;;;;4982270;28;20097;-84
2022/05/13 14:32:01;;;;;;;;;;;;;;;;;;4982321;28;20046;-83
2022/05/13 14:34:29;;;;;;;14.10;1.65;;;;;;;;;;4982151;28;19928;-82
2022/05/13 14:37:00;;;;;;;3.67;1.20;;;;;;;;;;4985131;28;20081;-85
2022/05/13 14:42:25;;;;;;;3.88;1.20;;;;;;;;;;5003028;28;20072;-85
2022/05/13 14:44:55;;;;;;;4.95;1.10;;;;;;;;;;4984768;28;20057;-84
2022/05/13 14:47:23;;;;;;;9.35;1.92;;;;;;;;;;4982449;28;20500;-85
2022/05/13 14:50:08;;;;;;;4.80;1.30;;;;;;;;;;4984249;28;20408;-84
2022/05/13 14:52:40;;;;;;;5.75;1.17;;;;;;;;;;4998803;28;20457;-84
2022/05/13 14:58:26;;;;;;;2.65;0.95;;;;;;;;;;4980480;28;20058;-85
2022/05/13 15:00:55;;;;;;;3.15;1.02;;;;;;;;;;4978487;28;20063;-84
2022/05/13 15:03:45;;;;;;;4.63;1.35;;;;;;;;;;4979324;28;20049;-86
2022/05/13 15:06:17;;;;;;;5.35;1.60;;;;;;;;;;4982014;28;20051;-83
2022/05/13 15:08:46;;;;;;;6.05;1.33;;;;;;;;;;4977794;28;20563;-86
2022/05/13 15:11:16;;;;;;;5.97;1.40;;;;;;;;;;4979975;28;20117;-85
2022/05/13 15:13:50;;;;;;;3.95;1.20;;;;;;;;;;4986258;28;20047;-85
2022/05/13 15:16:20;;;;;;;3.63;1.15;;;;;;;;;;4995335;28;20046;-85
2022/05/13 15:18:48;;;;;;;5.15;1.08;;;;;;;;;;4976411;28;20051;-85
2022/05/13 15:21:16;;;;;;;3.33;0.85;;;;;;;;;;4975242;28;20113;-85
2022/05/13 15:23:43;;;;;;;6.22;1.35;;;;;;;;;;4974328;28;20137;-85
2022/05/13 15:26:13;;;;;;;1.42;1.10;;;;;;;;;;4976491;28;20475;-86
2022/05/13 15:28:43;;;;;;;4.55;1.40;;;;;;;;;;4977709;28;20457;-85
2022/05/13 15:31:11;;;;;;;2.58;1.20;;;;;;;;;;4977857;28;20061;-86
2022/05/13 15:33:39;;;;;;;7.10;1.15;;;;;;;;;;4978738;28;20054;-85
2022/05/13 15:36:08;;;;;;;3.65;1.42;;;;;;;;;;4978444;28;20133;-84
2022/05/13 15:38:35;;;;;;;5.38;1.90;;;;;;;;;;4979630;28;20126;-85
2022/05/13 15:41:04;;;;;;;6.20;1.33;;;;;;;;;;4979334;28;20050;-86
2022/05/13 15:43:31;;;;;;;5.70;1.98;;;;;;;;;;4978808;28;20500;-84